createdAt,value
2022-12-09T00:00:01.857Z,11.97
2022-12-09T00:02:33.187Z,11.60
2022-12-09T00:05:01.529Z,10.33
2022-12-09T00:07:30.088Z,11.90
2022-12-09T00:09:58.465Z,10.83
2022-12-09T00:12:26.628Z,11.30
2022-12-09T00:14:54.803Z,12.33
2022-12-09T00:17:24.480Z,10.43
2022-12-09T00:19:52.702Z,11.20
2022-12-09T00:22:21.019Z,11.70
2022-12-09T00:24:49.331Z,10.80
2022-12-09T00:27:17.426Z,11.03
2022-12-09T00:29:45.977Z,11.73
2022-12-09T00:32:15.308Z,11.20
2022-12-09T00:34:45.680Z,10.93
2022-12-09T00:37:13.958Z,11.47
2022-12-09T00:39:42.340Z,10.57
2022-12-09T00:42:10.484Z,12.03
2022-12-09T00:44:39.525Z,11.67
2022-12-09T00:47:07.926Z,11.37
2022-12-09T00:49:36.196Z,10.90
2022-12-09T00:52:06.099Z,11.33
2022-12-09T00:54:34.569Z,10.67
2022-12-09T00:57:02.901Z,11.10
2022-12-09T00:59:31.329Z,11.93
2022-12-09T01:01:59.595Z,11.13
2022-12-09T01:04:28.059Z,10.83
2022-12-09T01:06:56.238Z,10.33
2022-12-09T01:09:25.970Z,11.03
2022-12-09T01:11:54.186Z,12.10
2022-12-09T01:14:22.545Z,12.10
2022-12-09T01:16:50.853Z,11.23
2022-12-09T01:19:19.287Z,10.23
2022-12-09T01:21:47.713Z,11.30
2022-12-09T01:24:16.506Z,11.13
2022-12-09T01:26:46.126Z,10.83
2022-12-09T01:29:16.161Z,10.80
2022-12-09T01:31:44.594Z,11.20
2022-12-09T01:34:13.365Z,11.43
2022-12-09T01:36:43.461Z,11.73
2022-12-09T01:39:12.558Z,10.50
2022-12-09T01:41:40.751Z,11.50
2022-12-09T01:44:13.459Z,12.03
2022-12-09T01:46:42.035Z,10.70
2022-12-09T01:49:15.113Z,11.33
2022-12-09T01:51:45.785Z,10.03
2022-12-09T01:54:16.926Z,11.30
2022-12-09T01:56:46.374Z,10.50
2022-12-09T01:59:17.154Z,11.50
2022-12-09T02:01:49.257Z,10.23
2022-12-09T02:04:18.757Z,10.03
2022-12-09T02:06:47.542Z,10.50
2022-12-09T02:09:18.893Z,9.77
2022-12-09T02:12:07.191Z,9.93
2022-12-09T02:14:41.610Z,10.00
2022-12-09T02:17:26.851Z,9.37
2022-12-09T02:20:05.568Z,10.50
2022-12-09T02:22:39.642Z,11.00
2022-12-09T02:25:20.609Z,9.70
2022-12-09T02:27:58.563Z,11.33
2022-12-09T02:30:39.126Z,10.53
2022-12-09T02:33:27.523Z,10.97
2022-12-09T02:36:00.381Z,10.90
2022-12-09T02:38:31.313Z,11.60
2022-12-09T02:41:03.383Z,9.90
2022-12-09T02:43:34.423Z,10.50
2022-12-09T02:46:04.781Z,10.57
2022-12-09T02:48:37.874Z,10.90
2022-12-09T02:51:10.766Z,11.40
2022-12-09T02:53:41.444Z,10.90
2022-12-09T02:56:11.587Z,10.20
2022-12-09T02:58:41.389Z,11.80
2022-12-09T03:01:22.044Z,12.50
2022-12-09T03:03:52.661Z,12.27
2022-12-09T03:06:27.153Z,11.10
2022-12-09T03:09:01.745Z,11.17
2022-12-09T03:11:31.153Z,12.43
2022-12-09T03:14:05.007Z,12.10
2022-12-09T03:16:36.622Z,12.40
2022-12-09T03:19:09.589Z,10.10
2022-12-09T03:21:44.261Z,11.37
2022-12-09T03:24:14.993Z,10.87
2022-12-09T03:26:44.360Z,11.00
2022-12-09T03:29:18.339Z,10.43
2022-12-09T03:31:48.233Z,11.27
2022-12-09T03:34:20.619Z,11.10
2022-12-09T03:36:53.167Z,11.43
2022-12-09T03:39:26.244Z,10.50
2022-12-09T03:41:57.927Z,10.70
2022-12-09T03:44:31.275Z,11.57
2022-12-09T03:47:00.185Z,10.83
2022-12-09T03:49:28.482Z,12.10
2022-12-09T03:52:03.578Z,10.37
2022-12-09T03:54:37.070Z,11.27
2022-12-09T03:57:05.938Z,11.60
2022-12-09T03:59:36.627Z,11.13
2022-12-09T04:02:07.148Z,11.50
2022-12-09T04:04:39.590Z,11.10
2022-12-09T04:07:09.807Z,10.40
2022-12-09T04:09:43.122Z,10.47
2022-12-09T04:12:11.769Z,11.47
2022-12-09T04:14:40.225Z,11.00
2022-12-09T04:17:08.691Z,10.80
2022-12-09T04:19:36.988Z,9.33
2022-12-09T04:22:06.190Z,9.97
2022-12-09T04:24:35.722Z,11.00
2022-12-09T04:27:04.207Z,11.30
2022-12-09T04:29:32.635Z,11.40
2022-12-09T04:32:01.263Z,12.30
2022-12-09T04:34:29.639Z,11.80
2022-12-09T04:36:58.107Z,11.60
2022-12-09T04:39:26.575Z,12.00
2022-12-09T04:41:56.468Z,12.07
2022-12-09T04:44:24.705Z,11.63
2022-12-09T04:46:53.238Z,11.23
2022-12-09T04:49:21.558Z,11.63
2022-12-09T04:51:49.752Z,11.00
2022-12-09T04:54:18.064Z,13.27
2022-12-09T04:56:46.270Z,11.53
2022-12-09T04:59:16.824Z,11.77
2022-12-09T05:01:45.075Z,11.83
2022-12-09T05:04:13.932Z,12.03
2022-12-09T05:06:42.516Z,12.43
2022-12-09T05:09:13.473Z,12.93
2022-12-09T05:11:42.159Z,12.40
2022-12-09T05:14:10.775Z,13.17
2022-12-09T05:16:40.606Z,12.53
2022-12-09T05:19:09.602Z,12.77
2022-12-09T05:21:37.950Z,12.13
2022-12-09T05:24:07.641Z,11.43
2022-12-09T05:26:36.202Z,12.30
2022-12-09T05:29:05.288Z,12.33
2022-12-09T05:31:34.102Z,13.00
2022-12-09T05:34:04.638Z,12.90
2022-12-09T05:36:35.942Z,13.30
2022-12-09T05:39:06.075Z,13.27
2022-12-09T05:41:34.413Z,13.43
2022-12-09T05:44:02.857Z,13.97
2022-12-09T05:46:31.333Z,13.13
2022-12-09T05:48:59.685Z,12.73
2022-12-09T05:51:31.235Z,13.67
2022-12-09T05:54:05.510Z,13.40
2022-12-09T05:56:34.535Z,14.00
2022-12-09T05:59:03.204Z,14.10
2022-12-09T06:01:31.913Z,14.27
2022-12-09T06:04:00.478Z,13.97
2022-12-09T06:06:31.639Z,13.47
2022-12-09T06:09:02.072Z,13.23
2022-12-09T06:11:32.306Z,13.03
2022-12-09T06:14:00.923Z,13.93
2022-12-09T06:16:29.911Z,13.70
2022-12-09T06:18:58.551Z,15.30
2022-12-09T06:21:27.317Z,14.17
2022-12-09T06:23:57.371Z,14.70
2022-12-09T06:26:27.779Z,15.47
2022-12-09T06:28:57.494Z,15.43
2022-12-09T06:31:26.131Z,15.60
2022-12-09T06:33:57.325Z,14.60
2022-12-09T06:36:27.006Z,14.60
2022-12-09T06:38:58.794Z,14.50
2022-12-09T06:41:29.426Z,14.27
2022-12-09T06:44:00.031Z,14.00
2022-12-09T06:46:29.516Z,14.97
2022-12-09T06:48:58.109Z,14.10
2022-12-09T06:51:27.509Z,15.33
2022-12-09T06:53:57.403Z,14.40
2022-12-09T06:56:26.223Z,14.57
2022-12-09T06:58:54.805Z,15.40
2022-12-09T07:01:24.972Z,14.53
2022-12-09T07:03:55.685Z,13.40
2022-12-09T07:06:28.066Z,14.70
2022-12-09T07:09:03.090Z,13.70
2022-12-09T07:11:31.923Z,14.93
2022-12-09T07:14:00.700Z,14.50
2022-12-09T07:16:29.540Z,14.60
2022-12-09T07:18:59.217Z,15.10
2022-12-09T07:21:28.335Z,15.90
2022-12-09T07:23:59.544Z,14.40
2022-12-09T07:26:32.743Z,15.50
2022-12-09T07:29:03.112Z,15.23
2022-12-09T07:31:31.877Z,15.07
2022-12-09T07:34:01.050Z,15.70
2022-12-09T07:36:31.540Z,14.30
2022-12-09T07:39:01.595Z,14.73
2022-12-09T07:41:33.976Z,13.57
2022-12-09T07:44:02.605Z,13.60
2022-12-09T07:46:31.526Z,14.83
2022-12-09T07:49:00.352Z,15.07
2022-12-09T07:51:29.530Z,14.70
2022-12-09T07:53:58.089Z,14.07
2022-12-09T07:56:28.640Z,15.40
2022-12-09T07:58:59.449Z,14.50
2022-12-09T08:01:30.962Z,14.97
2022-12-09T08:04:00.296Z,15.90
2022-12-09T08:06:31.307Z,14.70
2022-12-09T08:09:01.584Z,17.07
2022-12-09T08:11:32.156Z,15.80
2022-12-09T08:14:10.949Z,16.53
2022-12-09T08:16:41.972Z,14.97
2022-12-09T08:19:11.209Z,15.13
2022-12-09T08:21:40.035Z,15.10
2022-12-09T08:24:10.328Z,16.43
2022-12-09T08:26:42.202Z,15.37
2022-12-09T08:29:14.109Z,17.07
2022-12-09T08:31:44.067Z,15.57
2022-12-09T08:34:13.501Z,16.40
2022-12-09T08:36:43.580Z,15.23
2022-12-09T08:39:13.182Z,15.30
2022-12-09T08:41:41.985Z,14.87
2022-12-09T08:44:15.243Z,15.60
2022-12-09T08:46:47.332Z,16.60
2022-12-09T08:49:18.773Z,14.50
2022-12-09T08:51:48.384Z,15.07
2022-12-09T08:54:17.354Z,15.13
2022-12-09T08:56:47.544Z,15.53
2022-12-09T08:59:18.550Z,15.03
2022-12-09T09:01:47.412Z,14.30
2022-12-09T09:04:18.138Z,15.33
2022-12-09T09:06:50.165Z,15.30
2022-12-09T09:09:20.166Z,15.30
2022-12-09T09:11:48.902Z,15.27
2022-12-09T09:14:18.603Z,16.50
2022-12-09T09:16:47.511Z,16.27
2022-12-09T09:19:19.810Z,14.60
2022-12-09T09:21:49.277Z,15.17
2022-12-09T09:24:20.203Z,15.10
2022-12-09T09:26:50.477Z,15.03
2022-12-09T09:29:22.148Z,15.60
2022-12-09T09:31:54.647Z,14.30
2022-12-09T09:34:24.460Z,15.33
2022-12-09T09:36:53.466Z,15.03
2022-12-09T09:39:22.510Z,14.27
2022-12-09T09:41:54.465Z,14.57
2022-12-09T09:44:31.149Z,14.50
2022-12-09T09:47:00.609Z,14.40
2022-12-09T09:49:37.527Z,13.93
2022-12-09T09:52:11.503Z,14.20
2022-12-09T09:54:40.108Z,14.17
2022-12-09T09:57:15.791Z,13.90
2022-12-09T10:00:07.053Z,14.60
2022-12-09T10:02:59.731Z,14.63
2022-12-09T10:05:32.605Z,14.70
2022-12-09T10:08:20.336Z,14.27
2022-12-09T10:10:59.710Z,14.77
2022-12-09T10:13:45.155Z,14.53
2022-12-09T10:16:17.998Z,16.00
2022-12-09T10:19:07.351Z,14.93
2022-12-09T10:21:42.338Z,14.30
2022-12-09T10:24:22.181Z,13.90
2022-12-09T10:26:59.462Z,13.63
2022-12-09T10:29:54.193Z,13.93
2022-12-09T10:32:27.940Z,15.13
2022-12-09T10:34:57.329Z,13.77
2022-12-09T10:37:32.934Z,13.93
2022-12-09T10:40:16.043Z,15.40
2022-12-09T10:43:05.703Z,13.93
2022-12-09T10:46:08.387Z,14.40
2022-12-09T10:48:33.470Z,13.53
2022-12-09T10:51:05.364Z,14.20
2022-12-09T10:53:36.849Z,14.63
2022-12-09T10:56:05.893Z,13.43
2022-12-09T10:58:34.619Z,13.67
2022-12-09T11:01:07.867Z,14.13
2022-12-09T11:03:42.585Z,12.40
2022-12-09T11:06:23.251Z,12.03
2022-12-09T11:08:55.548Z,12.30
2022-12-09T11:11:40.528Z,13.30
2022-12-09T11:14:23.109Z,13.20
2022-12-09T11:16:54.598Z,11.77
2022-12-09T11:19:37.044Z,12.67
2022-12-09T11:22:16.904Z,12.83
2022-12-09T11:24:45.807Z,12.37
2022-12-09T11:27:28.963Z,11.23
2022-12-09T11:30:13.145Z,12.20
2022-12-09T11:32:56.732Z,11.73
2022-12-09T11:35:32.546Z,10.63
2022-12-09T11:38:18.161Z,11.70
2022-12-09T11:41:00.884Z,10.77
2022-12-09T11:43:42.533Z,11.07
2022-12-09T11:46:21.040Z,11.97
2022-12-09T11:48:54.946Z,10.90
2022-12-09T11:51:30.977Z,10.43
2022-12-09T11:54:03.940Z,10.87
2022-12-09T11:56:33.772Z,10.67
2022-12-09T11:59:04.936Z,11.63
2022-12-09T12:01:46.767Z,10.80
2022-12-09T12:04:19.609Z,11.57
2022-12-09T12:06:51.911Z,11.60
2022-12-09T12:09:25.002Z,10.80
2022-12-09T12:12:02.448Z,11.40
2022-12-09T12:14:31.697Z,10.50
2022-12-09T12:17:09.503Z,10.20
2022-12-09T12:19:41.306Z,11.70
2022-12-09T12:22:42.263Z,12.50
2022-12-09T12:25:30.731Z,10.20
2022-12-09T12:28:19.082Z,11.13
2022-12-09T12:30:52.149Z,11.87
2022-12-09T12:36:29.739Z,11.23
2022-12-09T12:39:13.460Z,11.07
2022-12-09T12:41:49.948Z,11.30
2022-12-09T12:44:50.033Z,10.20
2022-12-09T12:47:24.631Z,10.63
2022-12-09T12:50:14.063Z,10.17
2022-12-09T12:52:57.092Z,11.63
2022-12-09T12:55:49.968Z,10.93
2022-12-09T12:58:30.150Z,11.20
2022-12-09T13:01:04.641Z,11.67
2022-12-09T13:03:43.786Z,11.00
2022-12-09T13:06:14.795Z,10.93
2022-12-09T13:08:48.723Z,11.23
2022-12-09T13:11:22.725Z,11.10
2022-12-09T13:13:55.231Z,10.97
2022-12-09T13:16:28.623Z,11.33
2022-12-09T13:19:06.618Z,11.70
2022-12-09T13:21:35.575Z,11.30
2022-12-09T13:24:15.930Z,11.40
2022-12-09T13:26:51.102Z,10.23
2022-12-09T13:29:31.064Z,11.83
2022-12-09T13:32:08.886Z,11.50
2022-12-09T13:34:40.338Z,10.97
2022-12-09T13:37:35.068Z,11.80
2022-12-09T13:40:06.386Z,11.23
2022-12-09T13:42:56.585Z,11.20
2022-12-09T13:45:33.051Z,12.27
2022-12-09T13:48:09.557Z,12.43
2022-12-09T13:50:42.624Z,11.67
2022-12-09T13:53:26.319Z,11.80
2022-12-09T13:55:57.265Z,12.03
2022-12-09T13:59:00.136Z,10.97
2022-12-09T14:01:34.012Z,12.20
2022-12-09T14:04:11.537Z,11.67
2022-12-09T14:06:48.873Z,11.07
2022-12-09T14:09:27.346Z,11.57
2022-12-09T14:11:57.062Z,10.93
2022-12-09T14:14:51.831Z,11.67
2022-12-09T14:18:02.572Z,10.10
2022-12-09T14:20:33.994Z,10.43
2022-12-09T14:23:20.244Z,9.87
2022-12-09T14:26:01.236Z,9.93
2022-12-09T14:28:54.577Z,10.40
2022-12-09T14:31:59.325Z,10.67
2022-12-09T14:34:33.221Z,10.90
2022-12-09T14:37:20.215Z,10.83
2022-12-09T14:39:52.604Z,10.67
2022-12-09T14:42:30.704Z,10.63
2022-12-09T14:45:10.144Z,10.20
2022-12-09T14:47:43.055Z,10.33
2022-12-09T14:50:18.046Z,11.90
2022-12-09T14:52:54.636Z,10.40
2022-12-09T14:55:25.803Z,10.67
2022-12-09T14:57:55.788Z,10.10
2022-12-09T15:00:31.864Z,10.30
2022-12-09T15:05:59.171Z,10.70
2022-12-09T15:08:33.026Z,10.70
2022-12-09T15:11:05.338Z,9.40
2022-12-09T15:13:34.619Z,11.60
2022-12-09T15:16:03.054Z,10.83
2022-12-09T15:18:32.053Z,9.23
2022-12-09T15:21:02.870Z,10.80
2022-12-09T15:23:33.016Z,10.80
2022-12-09T15:26:04.780Z,11.20
2022-12-09T15:28:34.552Z,10.50
2022-12-09T15:31:05.141Z,11.10
2022-12-09T15:33:41.488Z,10.80
2022-12-09T15:36:15.331Z,11.83
2022-12-09T15:38:49.089Z,11.07
2022-12-09T15:41:36.299Z,11.37
2022-12-09T15:44:08.513Z,10.80
2022-12-09T15:46:40.104Z,10.43
2022-12-09T15:49:11.491Z,10.77
2022-12-09T15:51:44.383Z,11.30
2022-12-09T15:54:17.782Z,10.03
2022-12-09T15:56:48.758Z,11.27
2022-12-09T15:59:20.922Z,9.87
2022-12-09T16:01:52.249Z,10.60
2022-12-09T16:04:23.781Z,9.80
2022-12-09T16:06:55.884Z,9.83
2022-12-09T16:09:24.997Z,10.43
2022-12-09T16:11:54.687Z,9.50
2022-12-09T16:14:24.755Z,11.20
2022-12-09T16:16:56.918Z,9.90
2022-12-09T16:19:27.778Z,10.20
2022-12-09T16:22:00.442Z,9.93
2022-12-09T16:24:50.645Z,10.43
2022-12-09T16:27:21.318Z,9.37
2022-12-09T16:29:51.842Z,10.07
2022-12-09T16:32:30.348Z,10.13
2022-12-09T16:35:00.929Z,9.30
2022-12-09T16:37:37.767Z,9.70
2022-12-09T16:40:52.998Z,10.33
2022-12-09T16:43:23.364Z,9.20
2022-12-09T16:45:53.172Z,9.73
2022-12-09T16:48:23.212Z,10.87
2022-12-09T16:50:55.246Z,10.63
2022-12-09T16:53:26.842Z,10.93
2022-12-09T16:55:56.862Z,9.97
2022-12-09T16:58:25.098Z,9.43
2022-12-09T17:00:53.683Z,10.83
2022-12-09T17:03:32.919Z,9.50
2022-12-09T17:06:02.316Z,10.30
2022-12-09T17:08:32.112Z,9.47
2022-12-09T17:11:00.578Z,10.30
2022-12-09T17:13:29.351Z,10.00
2022-12-09T17:15:58.658Z,10.60
2022-12-09T17:18:27.029Z,10.60
2022-12-09T17:21:01.454Z,10.60
2022-12-09T17:23:36.086Z,10.57
2022-12-09T17:26:09.563Z,10.47
2022-12-09T17:28:38.176Z,10.20
2022-12-09T17:31:09.630Z,9.80
2022-12-09T17:33:38.314Z,9.60
2022-12-09T17:36:07.423Z,9.77
2022-12-09T17:38:37.285Z,9.70
2022-12-09T17:41:06.875Z,9.50
2022-12-09T17:43:35.456Z,10.33
2022-12-09T17:46:05.743Z,10.97
2022-12-09T17:48:35.358Z,10.60
2022-12-09T17:51:07.813Z,10.43
2022-12-09T17:53:38.275Z,11.03
2022-12-09T17:56:08.173Z,11.13
2022-12-09T17:58:37.128Z,11.30
2022-12-09T18:01:05.894Z,11.00
2022-12-09T18:03:54.869Z,11.50
2022-12-09T18:06:22.311Z,10.73
2022-12-09T18:08:51.881Z,11.47
2022-12-09T18:11:21.904Z,11.43
2022-12-09T18:13:51.820Z,10.63
2022-12-09T18:16:20.714Z,10.87
2022-12-09T18:18:48.910Z,12.47
2022-12-09T18:21:19.573Z,10.90
2022-12-09T18:23:52.730Z,11.00
2022-12-09T18:26:25.748Z,10.97
2022-12-09T18:28:57.526Z,10.70
2022-12-09T18:31:26.108Z,11.07
2022-12-09T18:33:54.611Z,10.80
2022-12-09T18:36:26.448Z,12.00
2022-12-09T18:38:58.187Z,11.57
2022-12-09T18:41:29.634Z,11.63
2022-12-09T18:43:59.944Z,11.93
2022-12-09T18:46:30.714Z,11.07
2022-12-09T18:49:01.798Z,12.60
2022-12-09T18:51:31.381Z,11.97
2022-12-09T18:54:01.996Z,11.27
2022-12-09T18:56:31.581Z,12.37
2022-12-09T18:59:08.745Z,11.93
2022-12-09T19:01:40.620Z,12.17
2022-12-09T19:04:12.689Z,12.23
2022-12-09T19:06:45.423Z,11.93
2022-12-09T19:09:17.638Z,12.30
2022-12-09T19:11:48.314Z,12.60
2022-12-09T19:14:17.771Z,12.47
2022-12-09T19:16:46.571Z,13.10
2022-12-09T19:19:16.609Z,12.67
2022-12-09T19:21:45.953Z,12.43
2022-12-09T19:24:17.347Z,12.40
2022-12-09T19:26:46.063Z,13.10
2022-12-09T19:29:15.521Z,12.77
2022-12-09T19:31:45.536Z,13.37
2022-12-09T19:34:16.247Z,12.00
2022-12-09T19:36:46.230Z,13.30
2022-12-09T19:39:16.898Z,13.17
2022-12-09T19:41:46.196Z,12.83
2022-12-09T19:44:30.938Z,12.67
2022-12-09T19:47:05.130Z,12.00
2022-12-09T19:49:33.488Z,13.13
2022-12-09T19:52:01.689Z,13.70
2022-12-09T19:54:31.315Z,12.80
2022-12-09T19:56:59.501Z,12.87
2022-12-09T19:59:28.412Z,13.93
2022-12-09T20:01:56.722Z,12.90
2022-12-09T20:07:14.833Z,13.30
2022-12-09T20:09:44.522Z,12.30
2022-12-09T20:12:12.748Z,13.17
2022-12-09T20:14:41.033Z,13.07
2022-12-09T20:17:09.228Z,14.23
2022-12-09T20:19:37.608Z,13.60
2022-12-09T20:22:06.214Z,13.97
2022-12-09T20:24:34.357Z,14.53
2022-12-09T20:27:03.901Z,14.27
2022-12-09T20:29:37.310Z,14.97
2022-12-09T20:32:06.747Z,14.70
2022-12-09T20:34:35.380Z,14.27
2022-12-09T20:37:03.735Z,14.07
2022-12-09T20:39:31.960Z,15.53
2022-12-09T20:42:00.324Z,13.77
2022-12-09T20:44:32.278Z,16.70
2022-12-09T20:47:00.521Z,14.47
2022-12-09T20:49:29.870Z,14.17
2022-12-09T20:51:58.587Z,13.93
2022-12-09T20:54:26.899Z,14.90
2022-12-09T20:56:55.247Z,15.80
2022-12-09T20:59:23.549Z,15.47
2022-12-09T21:01:54.203Z,15.27
2022-12-09T21:04:22.665Z,15.20
2022-12-09T21:06:54.146Z,15.97
2022-12-09T21:09:27.027Z,15.97
2022-12-09T21:11:55.253Z,16.03
2022-12-09T21:14:28.134Z,15.17
2022-12-09T21:17:02.157Z,14.57
2022-12-09T21:19:32.369Z,15.80
2022-12-09T21:22:00.800Z,16.37
2022-12-09T21:24:28.996Z,15.40
2022-12-09T21:26:57.265Z,16.77
2022-12-09T21:29:31.665Z,19.30
2022-12-09T21:32:02.108Z,20.47
2022-12-09T21:34:30.740Z,18.90
2022-12-09T21:36:59.182Z,16.20
2022-12-09T21:39:28.854Z,15.80
2022-12-09T21:41:57.457Z,16.27
2022-12-09T21:44:27.182Z,17.33
2022-12-09T21:46:55.421Z,22.17
2022-12-09T21:49:25.266Z,21.93
2022-12-09T21:51:53.486Z,24.27
2022-12-09T21:54:21.989Z,23.97
2022-12-09T21:56:50.141Z,23.50
2022-12-09T21:59:18.446Z,23.00
2022-12-09T22:01:46.867Z,18.70
2022-12-09T22:04:17.200Z,16.63
2022-12-09T22:06:48.323Z,23.40
2022-12-09T22:09:17.891Z,28.37
2022-12-09T22:11:48.094Z,17.57
2022-12-09T22:14:16.671Z,16.70
2022-12-09T22:16:46.799Z,15.53
2022-12-09T22:19:16.910Z,15.00
2022-12-09T22:21:45.027Z,15.60
2022-12-09T22:24:15.360Z,16.00
2022-12-09T22:26:44.478Z,16.20
2022-12-09T22:29:13.938Z,17.33
2022-12-09T22:31:43.318Z,15.80
2022-12-09T22:34:13.590Z,15.93
2022-12-09T22:36:43.004Z,16.17
2022-12-09T22:39:15.591Z,15.50
2022-12-09T22:41:45.770Z,15.70
2022-12-09T22:44:15.310Z,15.70
2022-12-09T22:46:43.919Z,15.40
2022-12-09T22:49:14.089Z,15.20
2022-12-09T22:51:43.000Z,15.83
2022-12-09T22:54:11.418Z,16.30
2022-12-09T22:56:42.774Z,14.10
2022-12-09T22:59:11.378Z,15.83
2022-12-09T23:01:39.578Z,15.00
2022-12-09T23:04:08.902Z,16.03
2022-12-09T23:06:38.481Z,15.70
2022-12-09T23:09:07.778Z,15.33
2022-12-09T23:11:37.093Z,15.17
2022-12-09T23:14:06.896Z,16.27
2022-12-09T23:16:35.107Z,15.73
2022-12-09T23:19:03.493Z,14.57
2022-12-09T23:21:33.922Z,14.90
2022-12-09T23:24:04.113Z,15.30
2022-12-09T23:26:34.023Z,15.30
2022-12-09T23:29:03.110Z,16.13
2022-12-09T23:31:34.460Z,16.47
2022-12-09T23:34:04.344Z,15.83
2022-12-09T23:36:34.680Z,16.77
2022-12-09T23:39:04.646Z,17.50
2022-12-09T23:41:32.769Z,17.07
2022-12-09T23:44:00.912Z,16.53
2022-12-09T23:46:30.523Z,16.53
2022-12-09T23:49:00.119Z,15.50
2022-12-09T23:51:29.842Z,16.40
2022-12-09T23:54:00.551Z,16.83
2022-12-09T23:56:30.550Z,16.87
2022-12-09T23:59:01.441Z,15.20
